Time;durP1;ratioP1;P1;durP2;ratioP2;P2;SDS_P1;SDS_P2;PMS_P1;PMS_P2;Temp;Humidity;BMP_temperature;BMP_pressure;BME280_temperature;BME280_humidity;BME280_pressure;Samples;Min_cycle;Max_cycle;Signal;HPM_P1;HPM_P2
2022/10/18 00:01:53;;;;;;;12.40;9.60;;;;;;;13.26;80.85;101404.70;88731;1299;22530;-75
2022/10/18 00:04:02;;;;;;;15.10;10.60;;;;;;;13.26;80.79;101402.41;88498;1302;22074;-75
2022/10/18 00:06:11;;;;;;;18.00;10.40;;;;;;;13.26;80.67;101399.98;88504;1299;22091;-75
2022/10/18 00:08:20;;;;;;;17.90;10.60;;;;;;;13.26;80.64;101399.81;88493;1305;22091;-75
2022/10/18 00:10:29;;;;;;;13.70;10.40;;;;;;;13.25;80.59;101395.80;88503;1306;22118;-75
2022/10/18 00:12:38;;;;;;;14.10;10.30;;;;;;;13.25;80.63;101392.14;88486;1301;22072;-75
2022/10/18 00:14:50;;;;;;;13.70;10.20;;;;;;;13.24;80.56;101390.40;88515;1306;22071;-75
2022/10/18 00:16:59;;;;;;;14.50;10.70;;;;;;;13.24;80.68;101387.42;88752;1299;22026;-75
2022/10/18 00:19:07;;;;;;;15.30;10.80;;;;;;;13.26;80.67;101385.94;88411;1301;22117;-75
2022/10/18 00:21:18;;;;;;;19.40;10.20;;;;;;;13.28;80.62;101387.27;88618;1299;22784;-75
2022/10/18 00:23:27;;;;;;;14.40;10.80;;;;;;;13.29;80.48;101384.96;88774;1286;22042;-73
2022/10/18 00:25:36;;;;;;;18.60;10.90;;;;;;;13.30;80.48;101382.49;88616;1299;22104;-74
2022/10/18 00:27:44;;;;;;;16.50;10.50;;;;;;;13.31;80.44;101383.00;88498;1299;22720;-74
2022/10/18 00:29:55;;;;;;;16.00;9.90;;;;;;;13.31;80.42;101380.35;88502;1306;22055;-75
2022/10/18 00:32:04;;;;;;;14.00;9.80;;;;;;;13.32;80.35;101375.77;88758;1292;22529;-75
2022/10/18 00:34:14;;;;;;;14.70;9.70;;;;;;;13.32;80.29;101376.46;88505;1305;22067;-75
2022/10/18 00:36:23;;;;;;;15.80;10.10;;;;;;;13.33;80.13;101376.27;88757;1289;22027;-75
2022/10/18 00:38:32;;;;;;;17.20;11.20;;;;;;;13.33;80.07;101375.20;88507;1306;22585;-75
2022/10/18 00:40:40;;;;;;;13.80;10.40;;;;;;;13.32;80.03;101372.41;88752;1290;22039;-75
2022/10/18 00:42:49;;;;;;;11.40;10.10;;;;;;;13.32;80.00;101372.06;88501;1295;22059;-75
2022/10/18 00:45:20;;;;;;;12.70;9.20;;;;;;;13.32;79.98;101366.98;88497;1306;22064;-75
2022/10/18 00:47:29;;;;;;;14.70;10.90;;;;;;;13.32;79.96;101367.69;88455;1306;22095;-75
2022/10/18 00:49:39;;;;;;;12.70;9.80;;;;;;;13.33;79.84;101359.77;88503;1306;22145;-75
2022/10/18 00:51:46;;;;;;;;;;;;;;;13.33;79.84;101353.11;88524;1305;22173;-75
2022/10/18 00:53:55;;;;;;;11.10;9.30;;;;;;;13.30;79.88;101351.30;88757;1288;22049;-75
2022/10/18 00:56:05;;;;;;;10.50;9.30;;;;;;;13.31;79.77;101351.80;88490;1305;22161;-75
2022/10/18 00:58:14;;;;;;;12.40;9.90;;;;;;;13.31;79.76;101353.35;88766;1294;22032;-75
2022/10/18 01:00:22;;;;;;;16.30;9.60;;;;;;;13.31;79.59;101347.92;88769;1300;22032;-75
2022/10/18 01:02:31;;;;;;;15.20;10.20;;;;;;;13.31;79.56;101346.71;88516;1305;22082;-75
2022/10/18 01:04:40;;;;;;;13.40;9.50;;;;;;;13.31;79.53;101342.69;88501;1306;22067;-75
2022/10/18 01:06:55;;;;;;;11.90;10.70;;;;;;;13.30;79.44;101342.72;88627;1299;22072;-75
2022/10/18 01:09:13;;;;;;;11.80;9.00;;;;;;;13.28;79.33;101341.52;88601;1299;22230;-75
2022/10/18 01:11:42;;;;;;;13.60;9.60;;;;;;;13.26;79.34;101336.34;88752;1299;22037;-75
2022/10/18 01:14:11;;;;;;;12.60;10.00;;;;;;;13.24;79.38;101336.25;88772;1286;22041;-75
2022/10/18 01:16:26;;;;;;;12.40;9.30;;;;;;;13.22;79.33;101329.48;88492;1299;22060;-75
2022/10/18 01:18:38;;;;;;;11.50;9.00;;;;;;;13.22;79.28;101325.46;88486;1304;22629;-75
2022/10/18 01:21:11;;;;;;;15.20;9.40;;;;;;;13.20;79.20;101318.50;88777;1295;22051;-75
2022/10/18 01:23:24;;;;;;;14.00;8.20;;;;;;;13.18;79.21;101312.93;88606;1290;22125;-75
2022/10/18 01:25:42;;;;;;;12.60;9.70;;;;;;;13.17;79.15;101313.68;88717;1290;22022;-76
2022/10/18 01:27:55;;;;;;;15.00;8.70;;;;;;;13.16;79.13;101310.91;88747;1298;22028;-76
2022/10/18 01:30:36;;;;;;;12.50;8.50;;;;;;;13.16;79.09;101312.13;88499;1305;22064;-75
2022/10/18 01:32:47;;;;;;;10.20;8.40;;;;;;;13.15;79.03;101316.20;88442;1306;22107;-75
2022/10/18 01:34:58;;;;;;;10.20;8.00;;;;;;;13.14;78.90;101315.16;88773;1290;22066;-75
2022/10/18 01:37:09;;;;;;;13.40;9.30;;;;;;;13.13;78.82;101311.52;88773;1290;22563;-75
2022/10/18 01:39:20;;;;;;;11.60;8.30;;;;;;;13.12;78.74;101308.56;88778;1297;22182;-75
2022/10/18 01:41:29;;;;;;;9.90;7.80;;;;;;;13.11;78.63;101307.04;88497;1305;22070;-75
2022/10/18 01:43:38;;;;;;;10.10;7.90;;;;;;;13.12;78.66;101310.33;88599;1303;22072;-75
2022/10/18 01:45:47;;;;;;;10.30;7.80;;;;;;;13.13;78.56;101309.44;88504;1296;22086;-75
2022/10/18 01:47:56;;;;;;;9.40;8.30;;;;;;;13.12;78.48;101310.49;88780;1292;22028;-75
2022/10/18 01:50:07;;;;;;;12.40;8.60;;;;;;;13.11;78.38;101310.89;88630;1303;22779;-75
2022/10/18 01:52:17;;;;;;;11.90;8.10;;;;;;;13.10;78.29;101313.54;88502;1305;22144;-75
2022/10/18 01:54:29;;;;;;;10.80;7.40;;;;;;;13.10;78.30;101314.61;88509;1306;22067;-75
2022/10/18 01:56:44;;;;;;;10.40;7.40;;;;;;;13.09;78.19;101314.12;88518;1298;22048;-75
2022/10/18 01:59:08;;;;;;;10.20;8.80;;;;;;;13.07;78.12;101310.33;88424;1290;22153;-75
2022/10/18 02:01:24;;;;;;;8.50;7.40;;;;;;;13.06;78.17;101310.89;88755;1300;22116;-75
2022/10/18 02:03:33;;;;;;;10.90;7.70;;;;;;;13.05;78.06;101314.09;88498;1307;22106;-75
2022/10/18 02:05:46;;;;;;;10.30;7.80;;;;;;;13.04;78.07;101313.59;88484;1312;22018;-75
2022/10/18 02:07:59;;;;;;;8.50;7.70;;;;;;;13.03;78.08;101312.92;88746;1300;22025;-75
2022/10/18 02:10:13;;;;;;;11.00;7.00;;;;;;;13.01;78.00;101317.17;88615;1305;22646;-74
2022/10/18 02:12:21;;;;;;;10.50;7.60;;;;;;;12.99;78.06;101321.80;88753;1298;22065;-74
2022/10/18 02:14:30;;;;;;;8.60;6.60;;;;;;;12.99;78.09;101326.02;88751;1294;22073;-74
2022/10/18 02:16:41;;;;;;;8.80;7.90;;;;;;;12.97;77.98;101326.25;88505;1310;22088;-75
2022/10/18 02:18:52;;;;;;;7.90;7.10;;;;;;;12.95;78.14;101322.98;88489;1295;22705;-75
2022/10/18 02:21:01;;;;;;;9.80;7.70;;;;;;;12.92;78.03;101324.46;88755;1302;22145;-75
2022/10/18 02:23:10;;;;;;;11.50;8.60;;;;;;;12.89;78.10;101323.16;88391;1313;22646;-75
2022/10/18 02:25:20;;;;;;;12.20;7.80;;;;;;;12.87;78.10;101325.01;88492;1305;22077;-75
2022/10/18 02:27:29;;;;;;;8.50;7.70;;;;;;;12.84;78.05;101321.59;88502;1304;22178;-75
2022/10/18 02:29:38;;;;;;;8.30;6.60;;;;;;;12.82;78.21;101318.68;88766;1299;22023;-75
2022/10/18 02:31:48;;;;;;;8.70;7.30;;;;;;;12.80;78.11;101317.52;88509;1304;22031;-75
2022/10/18 02:34:00;;;;;;;11.50;8.20;;;;;;;12.78;78.24;101319.34;88744;1287;22088;-75
2022/10/18 02:36:12;;;;;;;16.90;9.20;;;;;;;12.76;78.27;101314.66;88502;1301;22199;-75
2022/10/18 02:38:21;;;;;;;10.40;7.20;;;;;;;12.75;78.36;101313.48;88509;1305;22640;-75
2022/10/18 02:40:30;;;;;;;8.60;7.60;;;;;;;12.75;78.23;101314.36;88509;1306;22063;-75
2022/10/18 02:42:40;;;;;;;9.40;8.10;;;;;;;12.73;78.29;101316.70;88496;1313;22083;-75
2022/10/18 02:44:49;;;;;;;13.50;7.90;;;;;;;12.71;78.36;101314.14;88765;1294;22037;-75
2022/10/18 02:46:58;;;;;;;9.60;7.90;;;;;;;12.68;78.33;101314.77;88489;1305;22052;-75
2022/10/18 02:49:07;;;;;;;16.20;7.40;;;;;;;12.66;78.38;101310.28;88765;1298;22728;-75
2022/10/18 02:51:16;;;;;;;13.30;8.60;;;;;;;12.64;78.51;101314.02;88484;1300;22093;-75
2022/10/18 02:53:25;;;;;;;9.90;7.40;;;;;;;12.61;78.47;101312.16;88766;1292;22045;-75
2022/10/18 02:55:34;;;;;;;11.00;7.70;;;;;;;12.61;78.53;101314.10;88487;1307;22102;-75
2022/10/18 02:57:42;;;;;;;9.70;8.30;;;;;;;12.60;78.59;101319.90;88766;1284;22035;-75
2022/10/18 02:59:51;;;;;;;8.80;7.90;;;;;;;12.58;78.52;101319.79;88488;1293;22074;-75
2022/10/18 03:01:59;;;;;;;11.80;8.10;;;;;;;12.56;78.68;101320.39;88608;1289;22676;-75
2022/10/18 03:04:09;;;;;;;11.20;7.90;;;;;;;12.55;78.62;101322.15;88757;1295;22045;-75
2022/10/18 03:06:17;;;;;;;11.50;8.40;;;;;;;12.54;78.68;101322.17;88491;1307;22137;-75
2022/10/18 03:08:26;;;;;;;9.70;7.10;;;;;;;12.52;78.67;101317.34;88347;1308;22154;-75
2022/10/18 03:10:35;;;;;;;9.40;7.40;;;;;;;12.50;78.74;101320.39;88762;1300;22021;-75
2022/10/18 03:12:43;;;;;;;10.20;7.70;;;;;;;12.48;78.70;101319.92;88496;1306;22051;-75
2022/10/18 03:14:52;;;;;;;10.20;7.30;;;;;;;12.46;78.79;101320.01;88762;1293;22031;-75
2022/10/18 03:17:01;;;;;;;13.10;7.80;;;;;;;12.44;78.78;101319.86;88493;1305;22048;-75
2022/10/18 03:19:09;;;;;;;9.20;7.90;;;;;;;12.43;78.85;101317.98;88749;1294;22081;-75
2022/10/18 03:21:18;;;;;;;23.80;8.10;;;;;;;12.43;78.97;101317.13;88490;1306;22054;-75
2022/10/18 03:23:27;;;;;;;9.50;7.40;;;;;;;12.43;78.87;101319.39;88741;1287;22031;-75
2022/10/18 03:25:36;;;;;;;12.70;7.40;;;;;;;12.42;78.96;101310.48;88512;1306;22071;-75
2022/10/18 03:27:44;;;;;;;9.30;7.80;;;;;;;12.42;78.89;101313.30;88753;1300;22026;-75
2022/10/18 03:29:53;;;;;;;11.80;7.60;;;;;;;12.42;78.92;101318.20;88768;1284;22038;-75
2022/10/18 03:32:02;;;;;;;9.50;7.30;;;;;;;12.41;78.98;101317.88;88502;1306;22047;-75
2022/10/18 03:34:16;;;;;;;8.20;7.20;;;;;;;12.40;78.88;101319.11;88777;1299;22029;-75
2022/10/18 03:36:25;;;;;;;8.80;7.30;;;;;;;12.37;78.88;101310.63;88606;1299;22123;-75
2022/10/18 03:38:34;;;;;;;8.20;7.40;;;;;;;12.35;78.94;101300.89;88736;1299;22698;-75
2022/10/18 03:40:43;;;;;;;12.20;7.50;;;;;;;12.34;79.00;101302.83;88758;1288;22049;-75
2022/10/18 03:42:51;;;;;;;11.90;8.10;;;;;;;12.34;78.97;101309.66;88752;1298;22057;-75
2022/10/18 03:45:00;;;;;;;8.00;7.10;;;;;;;12.33;78.94;101307.09;88756;1300;22045;-75
2022/10/18 03:47:09;;;;;;;8.90;7.60;;;;;;;12.31;78.94;101302.59;88711;1299;22106;-75
2022/10/18 03:49:18;;;;;;;9.40;7.00;;;;;;;12.30;78.93;101307.16;88593;1300;22065;-75
2022/10/18 03:51:26;;;;;;;9.40;6.60;;;;;;;12.28;78.99;101309.50;88608;1290;22157;-76
2022/10/18 03:53:35;;;;;;;8.20;7.50;;;;;;;12.27;78.86;101313.39;88483;1298;22076;-76
2022/10/18 03:55:44;;;;;;;8.80;7.90;;;;;;;12.25;79.05;101314.84;88613;1299;22087;-76
2022/10/18 03:57:53;;;;;;;9.90;7.40;;;;;;;12.24;79.07;101318.20;88476;1305;22101;-76
2022/10/18 04:00:02;;;;;;;10.10;7.20;;;;;;;12.23;79.03;101320.16;88489;1301;22207;-76
2022/10/18 04:02:11;;;;;;;10.10;7.50;;;;;;;12.21;79.05;101322.30;88497;1304;22065;-76
2022/10/18 04:04:20;;;;;;;9.20;7.80;;;;;;;12.20;78.97;101319.90;88514;1301;22065;-76
2022/10/18 04:06:29;;;;;;;8.40;6.80;;;;;;;12.18;79.02;101326.60;88750;1283;22042;-76
2022/10/18 04:08:37;;;;;;;7.00;6.30;;;;;;;12.14;79.13;101321.63;88770;1291;22004;-76
2022/10/18 04:10:46;;;;;;;12.00;8.40;;;;;;;12.13;78.99;101321.34;88777;1299;22092;-76
2022/10/18 04:12:55;;;;;;;9.10;7.10;;;;;;;12.08;79.02;101318.66;88518;1305;22745;-76
2022/10/18 04:15:03;;;;;;;8.90;7.50;;;;;;;12.04;79.09;101315.27;88773;1294;22096;-76
2022/10/18 04:17:12;;;;;;;9.60;7.60;;;;;;;12.01;79.28;101321.85;88413;1302;22119;-76
2022/10/18 04:19:21;;;;;;;8.60;7.60;;;;;;;11.99;79.27;101321.92;88764;1288;22012;-76
2022/10/18 04:21:30;;;;;;;9.50;7.90;;;;;;;11.95;79.29;101320.98;88715;1296;22066;-76
2022/10/18 04:23:38;;;;;;;10.40;7.70;;;;;;;11.91;79.40;101322.30;88749;1299;22080;-76
2022/10/18 04:25:47;;;;;;;12.40;8.20;;;;;;;11.87;79.42;101325.20;88765;1299;22069;-76
2022/10/18 04:27:55;;;;;;;8.20;7.40;;;;;;;11.84;79.48;101324.59;88749;1288;22040;-75
2022/10/18 04:30:04;;;;;;;11.00;8.50;;;;;;;11.81;79.52;101324.13;88753;1294;22026;-75
2022/10/18 04:32:13;;;;;;;9.90;8.30;;;;;;;11.78;79.75;101322.80;88774;1290;22046;-75
2022/10/18 04:34:22;;;;;;;11.20;8.60;;;;;;;11.75;79.79;101323.06;88491;1306;22048;-75
2022/10/18 04:36:30;;;;;;;10.00;7.70;;;;;;;11.72;79.94;101322.10;88769;1294;21996;-76
2022/10/18 04:38:40;;;;;;;11.20;7.90;;;;;;;11.70;79.96;101326.54;88759;1281;22117;-76
2022/10/18 04:40:48;;;;;;;;;;;;;;;11.68;79.99;101325.89;88511;1305;22199;-76
2022/10/18 04:42:56;;;;;;;10.20;7.70;;;;;;;11.61;80.23;101329.39;88749;1299;22022;-75
2022/10/18 04:45:06;;;;;;;10.70;8.50;;;;;;;11.61;80.31;101327.83;88490;1302;22078;-75
2022/10/18 04:47:14;;;;;;;12.10;8.20;;;;;;;11.59;80.31;101326.29;88763;1295;21942;-75
2022/10/18 04:49:23;;;;;;;13.20;8.90;;;;;;;11.58;80.41;101325.45;88754;1299;22075;-75
2022/10/18 04:51:32;;;;;;;9.30;7.40;;;;;;;11.58;80.51;101330.69;88713;1299;22033;-75
2022/10/18 04:53:41;;;;;;;15.20;8.30;;;;;;;11.59;80.71;101329.27;88762;1299;22027;-75
2022/10/18 04:55:50;;;;;;;9.80;7.50;;;;;;;11.59;80.76;101330.66;88515;1301;22070;-75
2022/10/18 04:58:00;;;;;;;10.30;8.20;;;;;;;11.59;80.72;101327.88;88521;1306;22090;-75
2022/10/18 05:00:10;;;;;;;10.20;8.20;;;;;;;11.60;80.62;101331.36;88475;1306;22082;-75
2022/10/18 05:02:19;;;;;;;9.60;7.50;;;;;;;11.59;80.72;101334.69;88780;1287;21994;-75
2022/10/18 05:04:28;;;;;;;9.80;7.80;;;;;;;11.57;80.68;101333.52;88764;1287;22053;-75
2022/10/18 05:06:36;;;;;;;13.40;10.20;;;;;;;11.56;80.65;101334.94;88504;1305;22066;-75
2022/10/18 05:08:45;;;;;;;14.50;10.80;;;;;;;11.56;80.79;101336.86;88749;1299;22023;-75
2022/10/18 05:10:54;;;;;;;15.10;9.50;;;;;;;11.54;80.73;101331.33;88482;1306;22059;-75
2022/10/18 05:13:03;;;;;;;9.70;8.70;;;;;;;11.54;80.75;101332.91;88769;1291;22093;-75
2022/10/18 05:15:13;;;;;;;12.50;7.40;;;;;;;11.53;80.89;101335.23;88736;1299;22600;-75
2022/10/18 05:17:22;;;;;;;10.80;8.40;;;;;;;11.52;80.88;101334.02;88601;1299;22070;-75
2022/10/18 05:19:30;;;;;;;12.50;7.90;;;;;;;11.52;80.93;101340.30;88485;1301;22086;-75
2022/10/18 05:21:39;;;;;;;9.80;8.20;;;;;;;11.52;81.14;101339.95;88489;1301;22092;-75
2022/10/18 05:23:48;;;;;;;14.20;8.40;;;;;;;11.53;81.06;101339.77;88482;1301;22065;-75
2022/10/18 05:26:03;;;;;;;10.80;7.90;;;;;;;11.53;81.09;101342.20;88779;1297;22005;-75
2022/10/18 05:28:12;;;;;;;9.00;8.10;;;;;;;11.54;81.08;101341.48;88495;1297;22095;-75
2022/10/18 05:30:20;;;;;;;10.90;8.30;;;;;;;11.54;81.22;101339.36;88465;1306;22053;-75
2022/10/18 05:32:29;;;;;;;20.10;13.40;;;;;;;11.56;81.17;101342.30;88493;1300;22052;-75
2022/10/18 05:34:38;;;;;;;14.60;10.40;;;;;;;11.58;81.16;101349.05;88508;1305;22065;-75
2022/10/18 05:36:48;;;;;;;13.60;10.00;;;;;;;11.59;81.30;101350.42;88767;1299;22073;-75
2022/10/18 05:38:57;;;;;;;16.70;9.90;;;;;;;11.61;81.24;101352.30;88508;1291;22066;-75
2022/10/18 05:41:08;;;;;;;11.90;8.60;;;;;;;11.62;81.23;101358.20;88517;1292;22074;-75
2022/10/18 05:43:18;;;;;;;10.80;8.70;;;;;;;11.65;81.18;101359.89;88754;1291;22039;-75
2022/10/18 05:45:27;;;;;;;11.20;9.10;;;;;;;11.67;81.36;101357.36;88505;1299;22062;-75
2022/10/18 05:47:36;;;;;;;14.40;8.10;;;;;;;11.70;81.32;101356.43;88501;1306;22082;-75
2022/10/18 05:49:44;;;;;;;10.80;7.70;;;;;;;11.72;81.27;101358.98;88491;1306;22067;-75
2022/10/18 05:51:53;;;;;;;13.80;9.40;;;;;;;11.75;81.24;101361.89;88747;1294;22743;-75
2022/10/18 05:54:02;;;;;;;10.00;8.40;;;;;;;11.78;81.41;101357.27;88746;1299;22697;-75
2022/10/18 05:56:11;;;;;;;11.60;8.30;;;;;;;11.83;81.37;101357.69;88752;1299;22036;-76
2022/10/18 05:58:20;;;;;;;10.00;8.60;;;;;;;11.87;81.39;101359.83;88750;1289;22704;-76
2022/10/18 06:00:29;;;;;;;10.40;8.70;;;;;;;11.93;81.43;101362.30;88746;1299;22113;-76
2022/10/18 06:02:38;;;;;;;12.70;8.50;;;;;;;12.00;81.44;101366.29;88750;1299;22621;-76
2022/10/18 06:04:46;;;;;;;10.10;8.40;;;;;;;12.06;81.33;101367.88;88606;1299;22127;-76
2022/10/18 06:06:55;;;;;;;11.40;8.30;;;;;;;12.13;81.44;101372.22;88768;1288;22189;-76
2022/10/18 06:09:04;;;;;;;11.60;9.00;;;;;;;12.21;81.47;101370.08;88481;1306;22680;-75
2022/10/18 06:11:14;;;;;;;10.80;9.30;;;;;;;12.28;81.44;101367.95;88482;1306;22076;-75
2022/10/18 06:13:23;;;;;;;18.70;9.50;;;;;;;12.36;81.63;101370.52;88584;1299;22089;-75
2022/10/18 06:15:32;;;;;;;14.30;8.20;;;;;;;12.44;81.59;101378.52;88486;1306;22806;-75
2022/10/18 06:17:40;;;;;;;13.40;8.60;;;;;;;12.51;81.49;101374.10;88760;1291;22019;-75
2022/10/18 06:19:49;;;;;;;10.50;9.10;;;;;;;12.57;81.39;101377.75;88776;1288;22091;-75
2022/10/18 06:21:59;;;;;;;15.10;8.10;;;;;;;12.63;81.31;101379.48;88782;1287;22124;-74
2022/10/18 06:24:09;;;;;;;10.80;8.50;;;;;;;12.69;81.10;101377.58;88785;1281;22057;-74
2022/10/18 06:26:18;;;;;;;9.50;8.30;;;;;;;12.74;81.07;101378.10;88781;1299;21947;-74
2022/10/18 06:28:26;;;;;;;12.50;8.70;;;;;;;12.80;80.97;101373.39;88751;1299;22072;-74
2022/10/18 06:30:35;;;;;;;10.30;9.30;;;;;;;12.86;81.01;101371.96;88634;1294;22838;-73
2022/10/18 06:32:44;;;;;;;12.90;9.20;;;;;;;12.92;80.85;101374.75;88517;1306;22131;-73
2022/10/18 06:34:53;;;;;;;15.40;10.20;;;;;;;12.98;80.80;101380.33;88768;1298;22056;-73
2022/10/18 06:37:02;;;;;;;12.00;9.40;;;;;;;13.04;80.78;101381.89;88487;1301;22068;-74
2022/10/18 06:39:12;;;;;;;9.00;8.00;;;;;;;13.11;80.68;101377.30;88515;1300;22111;-75
2022/10/18 06:41:22;;;;;;;10.60;9.20;;;;;;;13.18;80.27;101377.77;88474;1306;22063;-75
2022/10/18 06:43:32;;;;;;;16.50;10.00;;;;;;;13.25;80.22;101380.54;88788;1299;22012;-75
2022/10/18 06:45:41;;;;;;;12.50;9.90;;;;;;;13.34;80.07;101382.52;88775;1299;22064;-75
2022/10/18 06:47:50;;;;;;;10.00;8.10;;;;;;;13.42;80.03;101377.35;88475;1301;22051;-75
2022/10/18 06:49:59;;;;;;;14.60;8.40;;;;;;;13.50;79.84;101376.04;88754;1294;22085;-75
2022/10/18 06:52:08;;;;;;;27.40;8.10;;;;;;;13.57;79.79;101374.72;88751;1299;22581;-75
2022/10/18 06:54:17;;;;;;;10.30;8.40;;;;;;;13.66;79.69;101372.32;88741;1299;22517;-76
2022/10/18 06:56:26;;;;;;;8.90;8.00;;;;;;;13.74;79.44;101374.67;88506;1299;22071;-75
2022/10/18 06:58:36;;;;;;;9.60;8.20;;;;;;;13.82;79.12;101372.45;88481;1292;22147;-76
2022/10/18 07:00:46;;;;;;;10.10;7.70;;;;;;;13.90;79.01;101370.77;88775;1287;22203;-76
2022/10/18 07:02:56;;;;;;;15.30;9.20;;;;;;;14.00;78.89;101374.83;88752;1297;21997;-76
2022/10/18 07:05:06;;;;;;;9.90;8.10;;;;;;;14.07;78.63;101371.19;88497;1306;22771;-76
2022/10/18 07:07:15;;;;;;;10.20;8.30;;;;;;;14.16;78.50;101373.84;88507;1306;22141;-76
2022/10/18 07:09:24;;;;;;;9.50;8.50;;;;;;;14.27;78.19;101374.52;88786;1299;22168;-75
2022/10/18 07:11:34;;;;;;;10.20;8.30;;;;;;;14.34;77.94;101374.05;88517;1305;22138;-75
2022/10/18 07:13:42;;;;;;;11.10;9.00;;;;;;;14.43;78.02;101372.34;88765;1287;22079;-75
2022/10/18 07:16:01;;;;;;;11.60;9.00;;;;;;;14.51;77.61;101376.61;88776;1291;22048;-75
2022/10/18 07:18:10;;;;;;;10.60;8.30;;;;;;;14.60;77.45;101382.95;88756;1299;22028;-75
2022/10/18 07:20:19;;;;;;;10.20;8.30;;;;;;;14.71;77.32;101386.04;88784;1288;22029;-76
2022/10/18 07:22:28;;;;;;;11.60;8.50;;;;;;;14.86;77.36;101380.87;88783;1299;22049;-76
2022/10/18 07:24:36;;;;;;;12.20;9.00;;;;;;;15.03;76.73;101377.37;88511;1306;22105;-76
2022/10/18 07:26:45;;;;;;;14.40;8.70;;;;;;;15.23;76.35;101378.12;88752;1298;22681;-76
2022/10/18 07:28:56;;;;;;;10.00;8.10;;;;;;;15.41;75.73;101373.17;88735;1297;22044;-76
2022/10/18 07:31:09;;;;;;;10.90;8.50;;;;;;;15.60;75.44;101373.28;88737;1299;22722;-76
2022/10/18 07:33:19;;;;;;;12.10;10.30;;;;;;;15.76;74.97;101371.34;88500;1306;22053;-76
2022/10/18 07:35:28;;;;;;;13.70;8.10;;;;;;;15.97;74.79;101371.98;88494;1306;22086;-76
2022/10/18 07:37:36;;;;;;;13.60;8.20;;;;;;;16.18;74.33;101367.02;88746;1299;22047;-76
2022/10/18 07:39:45;;;;;;;10.70;9.00;;;;;;;16.42;73.89;101369.95;88490;1306;22080;-76
2022/10/18 07:41:54;;;;;;;9.10;7.40;;;;;;;16.70;73.33;101366.73;88752;1287;22052;-76
2022/10/18 07:44:04;;;;;;;16.70;8.90;;;;;;;17.07;72.71;101366.34;88508;1298;22039;-76
2022/10/18 07:46:10;;;;;;;;;;;;;;;17.40;71.50;101360.98;88796;1283;22878;-76
2022/10/18 07:48:19;;;;;;;13.10;8.80;;;;;;;17.61;70.69;101352.52;88745;1298;22053;-76
2022/10/18 07:50:28;;;;;;;11.30;7.80;;;;;;;17.86;69.75;101357.41;88079;1301;541921;-76
2022/10/18 07:52:36;;;;;;;11.90;7.60;;;;;;;18.01;68.83;101357.30;88503;1301;22073;-76
2022/10/18 07:54:45;;;;;;;9.00;7.80;;;;;;;18.14;68.05;101358.57;88491;1306;22064;-76
2022/10/18 07:56:54;;;;;;;8.20;6.60;;;;;;;18.15;67.37;101360.45;88610;1299;22061;-76
2022/10/18 07:59:02;;;;;;;8.50;7.60;;;;;;;18.11;66.73;101361.73;88755;1287;22150;-76
2022/10/18 08:01:11;;;;;;;10.90;7.10;;;;;;;18.08;66.19;101361.70;88493;1305;22075;-76
2022/10/18 08:03:20;;;;;;;12.40;7.60;;;;;;;18.03;66.16;101356.70;88481;1299;22160;-76
2022/10/18 08:05:29;;;;;;;9.20;8.10;;;;;;;17.99;65.85;101351.26;88481;1306;21961;-76
2022/10/18 08:07:38;;;;;;;9.80;7.90;;;;;;;17.91;65.80;101352.76;88482;1306;22069;-76
2022/10/18 08:09:47;;;;;;;9.20;7.90;;;;;;;17.82;65.63;101352.36;88662;1287;22059;-76
2022/10/18 08:11:56;;;;;;;14.10;7.50;;;;;;;17.73;65.74;101351.90;88503;1305;22093;-74
2022/10/18 08:14:04;;;;;;;11.90;9.10;;;;;;;17.68;65.92;101346.85;88752;1298;22438;-74
2022/10/18 08:16:14;;;;;;;11.60;8.60;;;;;;;17.67;66.10;101343.36;88753;1298;22743;-75
2022/10/18 08:18:23;;;;;;;11.70;8.70;;;;;;;17.70;66.11;101342.71;88790;1299;22109;-75
2022/10/18 08:20:32;;;;;;;13.00;8.40;;;;;;;17.75;66.14;101339.97;88526;1306;22105;-74
2022/10/18 08:22:40;;;;;;;10.50;8.10;;;;;;;17.83;65.99;101335.36;88509;1306;22066;-74
2022/10/18 08:24:49;;;;;;;14.20;8.70;;;;;;;17.91;65.65;101333.70;88767;1299;22622;-74
2022/10/18 08:26:58;;;;;;;10.30;8.80;;;;;;;17.98;66.04;101332.77;88478;1301;22091;-74
2022/10/18 08:29:07;;;;;;;13.30;8.40;;;;;;;18.07;65.93;101327.69;88521;1298;22524;-76
2022/10/18 08:31:17;;;;;;;12.50;8.60;;;;;;;18.19;65.92;101326.88;88764;1296;22058;-75
2022/10/18 08:33:26;;;;;;;12.60;8.70;;;;;;;18.27;65.32;101323.94;88757;1298;22040;-76
2022/10/18 08:35:35;;;;;;;13.90;8.70;;;;;;;18.37;65.42;101324.80;88756;1287;22115;-74
2022/10/18 08:37:44;;;;;;;13.70;9.50;;;;;;;18.50;65.88;101323.71;88485;1306;22514;-74
2022/10/18 08:39:53;;;;;;;13.60;8.10;;;;;;;18.67;65.87;101322.45;88495;1298;22139;-73
2022/10/18 08:42:33;;;;;;;11.80;8.40;;;;;;;18.85;66.12;101318.56;88751;1299;22011;-72
2022/10/18 08:44:46;;;;;;;11.50;9.10;;;;;;;19.07;65.10;101314.14;88771;1298;22648;-75
2022/10/18 08:46:58;;;;;;;12.30;9.60;;;;;;;19.24;64.31;101316.86;88481;1304;22021;-75
2022/10/18 08:49:07;;;;;;;11.60;9.60;;;;;;;19.41;64.12;101320.27;88516;1299;22064;-76
2022/10/18 08:51:23;;;;;;;14.30;9.30;;;;;;;19.58;63.56;101318.72;88607;1299;22177;-75
2022/10/18 08:53:37;;;;;;;11.00;9.90;;;;;;;19.77;63.05;101319.34;88611;1299;22644;-75
2022/10/18 08:55:49;;;;;;;14.70;10.20;;;;;;;19.93;62.55;101319.39;88747;1285;22767;-75
2022/10/18 08:57:58;;;;;;;14.70;9.40;;;;;;;20.12;62.39;101320.19;88508;1306;22076;-75
2022/10/18 09:00:11;;;;;;;14.10;9.50;;;;;;;20.40;62.72;101315.39;88773;1287;22039;-76
2022/10/18 09:02:37;;;;;;;13.10;9.30;;;;;;;20.81;62.20;101317.90;88762;1298;22016;-74
2022/10/18 09:04:51;;;;;;;16.30;9.60;;;;;;;21.29;61.16;101312.56;88738;1280;22087;-74
2022/10/18 09:07:09;;;;;;;12.90;9.70;;;;;;;21.73;60.70;101313.09;88739;1288;22053;-74
2022/10/18 09:09:28;;;;;;;10.70;9.50;;;;;;;22.23;59.57;101316.30;88500;1306;23070;-75
2022/10/18 09:11:50;;;;;;;14.30;9.40;;;;;;;22.58;58.62;101311.42;88481;1306;22067;-75
2022/10/18 09:14:32;;;;;;;10.60;8.50;;;;;;;22.83;57.83;101310.50;88774;1281;22059;-73
2022/10/18 09:16:46;;;;;;;11.80;10.10;;;;;;;22.99;56.77;101306.67;88756;1298;22130;-73
2022/10/18 09:19:01;;;;;;;9.80;8.70;;;;;;;23.18;55.78;101304.52;88762;1299;22105;-73
2022/10/18 09:21:17;;;;;;;15.60;10.50;;;;;;;23.19;55.15;101305.52;88497;1298;22533;-76
2022/10/18 09:23:34;;;;;;;12.10;8.90;;;;;;;23.20;55.30;101304.19;88504;1306;22048;-75
2022/10/18 09:25:51;;;;;;;13.70;9.90;;;;;;;23.22;54.92;101299.56;88493;1292;22146;-73
2022/10/18 09:28:10;;;;;;;12.90;9.10;;;;;;;23.26;54.77;101300.38;88508;1299;22095;-73
2022/10/18 09:30:26;;;;;;;10.60;9.50;;;;;;;23.28;54.22;101298.57;88546;1306;22077;-73
2022/10/18 09:32:42;;;;;;;13.30;9.60;;;;;;;23.28;53.54;101297.19;88776;1288;22638;-73
2022/10/18 09:34:52;;;;;;;10.30;8.90;;;;;;;23.23;52.91;101290.99;88773;1299;22063;-73
2022/10/18 09:37:01;;;;;;;11.10;9.70;;;;;;;23.34;53.97;101286.57;88504;1306;22599;-73
2022/10/18 09:39:13;;;;;;;12.30;9.80;;;;;;;23.56;53.49;101280.41;88506;1306;22065;-74
2022/10/18 09:41:25;;;;;;;9.60;8.70;;;;;;;23.82;53.23;101275.89;88493;1301;22094;-74
2022/10/18 09:43:42;;;;;;;10.10;9.10;;;;;;;24.03;51.60;101272.91;88753;1279;22037;-74
2022/10/18 09:45:52;;;;;;;12.10;9.20;;;;;;;24.24;51.48;101271.63;88758;1295;22005;-74
2022/10/18 09:48:08;;;;;;;9.90;9.00;;;;;;;24.38;51.59;101269.63;88494;1294;22136;-74
2022/10/18 09:50:24;;;;;;;10.60;9.40;;;;;;;24.56;51.39;101267.21;88756;1292;22007;-73
2022/10/18 09:52:37;;;;;;;14.00;9.30;;;;;;;24.60;50.57;101265.06;88500;1297;22125;-73
2022/10/18 09:54:49;;;;;;;13.40;9.40;;;;;;;24.55;50.64;101260.34;88503;1301;22524;-75
2022/10/18 09:57:04;;;;;;;11.50;8.80;;;;;;;24.35;50.36;101260.23;88645;1286;22127;-75
2022/10/18 09:59:27;;;;;;;11.40;10.20;;;;;;;24.07;50.72;101258.91;88523;1306;22090;-73
2022/10/18 10:01:36;;;;;;;10.30;9.30;;;;;;;23.79;50.93;101253.65;88495;1304;22073;-73
2022/10/18 10:03:45;;;;;;;14.30;10.80;;;;;;;23.60;51.22;101252.45;88499;1298;22099;-73